Aérodrome :
LOGIN :

S'inscrire | Disclaimer

   EN    FR    IT 

 










Légende :    VFR   VFR Marginal   IFR   IFR Intensif   IFR Très Intensif
Visi : 
Plafond : 
>= 8 km
>= 3000ft
5 à 8 km
1000 à 3000 ft
1500m à 5 km
500 à 1000 ft
800 à 1500m
200 à 500 ft
< 800m
< 200 ft
Symboles :   Orages  Brouillard  Fortes neiges  Fortes précipitations  Vent > 20 kt
SIGMETs :   Divers  Orages  Givrage  Turbulence  Onde Orograph.  Cendres Volcan.






- Altitude de l'aérodrome : 1071 ft
- Code IATA : LWO


UKLL - L'viv

DERNIER METAR :
  • 191630Z 00000MPS 7000 OVC009 M01/M02 Q1032 R13/D NOSIG

METARs EXPIRÉS :
  • 191600Z VRB01MPS 8000 OVC009 M01/M02 Q1032 R13/CLRD// NOSIG
  • 191530Z VRB01MPS 8000 OVC009 M01/M02 Q1031 R13/CLRD// NOSIG
  • 191500Z VRB01MPS 9000 OVC009 M01/M02 Q1031 R13/D NOSIG
  • 191430Z 11002MPS 060V160 9000 OVC009 M02/M02 Q1030 R13/D NOSIG
  • 191400Z 04002MPS 360V100 8000 OVC009 M02/M02 Q1030 R31/D NOSIG

TAF AMD TAF UKLL
Valide du 19 à 15h jusqu'au 20 à 12h UTC


191540Z 1915/2012 VRB01MPS 2100 BR SCT004 BKN007 TX01/2011Z TNM01/1916Z
TEMPO 1915/2006 0400 -SHSN FZFG BKN002 BKN017CB
TEMPO 2006/2012 30003MPS 0300 -DZ FG OVC001



MET'MAP, la Météo Aéronautique d'un coup d'oeil ! - Copyright ORBIFLY Décembre 2007 - Disclaimer

ORBIFLY MET'MAP TEAM :

Programmation & Développement : Alexandra Zaïnal
Sur une idée originale de : Baudouin d'Aumeries
Assistance à la programmation : Marc-Olivier Méhu
Soutien technique & logistique : Manuel Goepfert

Contact : metmap@orbifly.com




SOURCES & CREDITS :

   NOAA